sensor_id;sensor_type;location;lat;lon;timestamp;temperature;humidity
546;DHT22;259;53.304;9.816;2023-07-16T00:02:23;23.80;90.30
546;DHT22;259;53.304;9.816;2023-07-16T00:04:48;23.80;90.30
546;DHT22;259;53.304;9.816;2023-07-16T00:07:14;23.80;90.30
546;DHT22;259;53.304;9.816;2023-07-16T00:09:40;23.80;90.30
546;DHT22;259;53.304;9.816;2023-07-16T00:12:06;23.80;90.20
546;DHT22;259;53.304;9.816;2023-07-16T00:14:32;23.80;90.30
546;DHT22;259;53.304;9.816;2023-07-16T00:16:58;23.70;90.30
546;DHT22;259;53.304;9.816;2023-07-16T00:19:23;23.70;90.30
546;DHT22;259;53.304;9.816;2023-07-16T00:21:49;23.70;90.30
546;DHT22;259;53.304;9.816;2023-07-16T00:24:15;23.70;90.30
546;DHT22;259;53.304;9.816;2023-07-16T00:26:40;23.70;90.20
546;DHT22;259;53.304;9.816;2023-07-16T00:29:06;23.70;90.30
546;DHT22;259;53.304;9.816;2023-07-16T00:31:32;23.70;90.30
546;DHT22;259;53.304;9.816;2023-07-16T00:33:57;23.70;90.20
546;DHT22;259;53.304;9.816;2023-07-16T00:36:24;23.70;90.20
546;DHT22;259;53.304;9.816;2023-07-16T00:38:50;23.70;90.30
546;DHT22;259;53.304;9.816;2023-07-16T00:41:15;23.70;90.40
546;DHT22;259;53.304;9.816;2023-07-16T00:43:41;23.70;90.40
546;DHT22;259;53.304;9.816;2023-07-16T00:46:08;23.70;90.30
546;DHT22;259;53.304;9.816;2023-07-16T00:48:34;23.60;90.30
546;DHT22;259;53.304;9.816;2023-07-16T00:51:02;23.60;90.30
546;DHT22;259;53.304;9.816;2023-07-16T00:53:28;23.60;90.20
546;DHT22;259;53.304;9.816;2023-07-16T00:55:54;23.60;90.30
546;DHT22;259;53.304;9.816;2023-07-16T00:58:20;23.60;90.20
546;DHT22;259;53.304;9.816;2023-07-16T01:00:45;23.60;90.20
546;DHT22;259;53.304;9.816;2023-07-16T01:03:13;23.60;90.20
546;DHT22;259;53.304;9.816;2023-07-16T01:05:49;23.60;90.20
546;DHT22;259;53.304;9.816;2023-07-16T01:08:27;23.60;90.20
546;DHT22;259;53.304;9.816;2023-07-16T01:10:57;23.60;90.20
546;DHT22;259;53.304;9.816;2023-07-16T01:13:23;23.60;90.20
546;DHT22;259;53.304;9.816;2023-07-16T01:15:50;23.60;90.10
546;DHT22;259;53.304;9.816;2023-07-16T01:18:15;23.60;90.10
546;DHT22;259;53.304;9.816;2023-07-16T01:20:41;23.50;90.00
546;DHT22;259;53.304;9.816;2023-07-16T01:29:18;23.50;90.00
546;DHT22;259;53.304;9.816;2023-07-16T01:31:49;23.50;90.10
546;DHT22;259;53.304;9.816;2023-07-16T01:34:17;23.50;90.20
546;DHT22;259;53.304;9.816;2023-07-16T01:36:44;23.50;90.10
546;DHT22;259;53.304;9.816;2023-07-16T01:39:10;23.50;90.00
546;DHT22;259;53.304;9.816;2023-07-16T01:41:35;23.40;90.00
546;DHT22;259;53.304;9.816;2023-07-16T01:44:01;23.40;90.00
546;DHT22;259;53.304;9.816;2023-07-16T01:46:27;23.40;90.00
546;DHT22;259;53.304;9.816;2023-07-16T01:48:53;23.40;90.00
546;DHT22;259;53.304;9.816;2023-07-16T01:51:18;23.40;90.00
546;DHT22;259;53.304;9.816;2023-07-16T01:53:45;23.40;90.00
546;DHT22;259;53.304;9.816;2023-07-16T01:56:11;23.40;90.10
546;DHT22;259;53.304;9.816;2023-07-16T01:58:37;23.40;90.20
546;DHT22;259;53.304;9.816;2023-07-16T02:01:02;23.40;90.10
546;DHT22;259;53.304;9.816;2023-07-16T02:03:28;23.40;90.20
546;DHT22;259;53.304;9.816;2023-07-16T02:05:54;23.40;90.20
546;DHT22;259;53.304;9.816;2023-07-16T02:08:19;23.40;90.10
546;DHT22;259;53.304;9.816;2023-07-16T02:10:47;23.30;90.00
546;DHT22;259;53.304;9.816;2023-07-16T02:13:14;23.40;90.10
546;DHT22;259;53.304;9.816;2023-07-16T02:15:39;23.30;90.00
546;DHT22;259;53.304;9.816;2023-07-16T02:18:06;23.30;90.00
546;DHT22;259;53.304;9.816;2023-07-16T02:20:31;23.30;90.00
546;DHT22;259;53.304;9.816;2023-07-16T02:22:57;23.30;90.00
546;DHT22;259;53.304;9.816;2023-07-16T02:25:23;23.30;90.00
546;DHT22;259;53.304;9.816;2023-07-16T02:27:49;23.30;90.00
546;DHT22;259;53.304;9.816;2023-07-16T02:30:15;23.30;90.00
546;DHT22;259;53.304;9.816;2023-07-16T02:32:41;23.30;90.00
546;DHT22;259;53.304;9.816;2023-07-16T02:35:07;23.30;90.00
546;DHT22;259;53.304;9.816;2023-07-16T02:37:33;23.30;90.30
546;DHT22;259;53.304;9.816;2023-07-16T02:39:59;23.20;89.70
546;DHT22;259;53.304;9.816;2023-07-16T02:42:24;23.20;89.80
546;DHT22;259;53.304;9.816;2023-07-16T02:44:50;23.20;89.70
546;DHT22;259;53.304;9.816;2023-07-16T02:47:16;23.20;89.70
546;DHT22;259;53.304;9.816;2023-07-16T02:49:42;23.20;89.70
546;DHT22;259;53.304;9.816;2023-07-16T02:52:07;23.20;89.80
546;DHT22;259;53.304;9.816;2023-07-16T02:54:35;23.20;89.60
546;DHT22;259;53.304;9.816;2023-07-16T02:57:01;23.20;89.70
546;DHT22;259;53.304;9.816;2023-07-16T02:59:27;23.20;89.70
546;DHT22;259;53.304;9.816;2023-07-16T03:01:53;23.20;90.20
546;DHT22;259;53.304;9.816;2023-07-16T03:04:19;23.10;89.60
546;DHT22;259;53.304;9.816;2023-07-16T03:06:45;23.10;89.70
546;DHT22;259;53.304;9.816;2023-07-16T03:09:10;23.10;89.80
546;DHT22;259;53.304;9.816;2023-07-16T03:11:36;23.10;89.80
546;DHT22;259;53.304;9.816;2023-07-16T03:14:02;23.10;89.80
546;DHT22;259;53.304;9.816;2023-07-16T03:16:28;23.10;90.00
546;DHT22;259;53.304;9.816;2023-07-16T03:18:54;23.10;90.00
546;DHT22;259;53.304;9.816;2023-07-16T03:21:20;23.10;90.00
546;DHT22;259;53.304;9.816;2023-07-16T03:23:45;23.10;90.00
546;DHT22;259;53.304;9.816;2023-07-16T03:26:11;23.10;90.00
546;DHT22;259;53.304;9.816;2023-07-16T03:28:37;23.10;90.00
546;DHT22;259;53.304;9.816;2023-07-16T03:31:03;23.10;90.00
546;DHT22;259;53.304;9.816;2023-07-16T03:33:28;23.00;90.00
546;DHT22;259;53.304;9.816;2023-07-16T03:35:54;23.00;89.80
546;DHT22;259;53.304;9.816;2023-07-16T03:38:20;23.00;89.90
546;DHT22;259;53.304;9.816;2023-07-16T03:40:49;23.00;90.00
546;DHT22;259;53.304;9.816;2023-07-16T03:43:18;23.00;90.00
546;DHT22;259;53.304;9.816;2023-07-16T03:45:44;23.00;90.00
546;DHT22;259;53.304;9.816;2023-07-16T03:48:09;23.00;89.90
546;DHT22;259;53.304;9.816;2023-07-16T03:50:36;23.00;90.00
546;DHT22;259;53.304;9.816;2023-07-16T03:53:02;23.00;90.00
546;DHT22;259;53.304;9.816;2023-07-16T03:55:28;22.90;89.80
546;DHT22;259;53.304;9.816;2023-07-16T03:57:54;22.90;89.80
546;DHT22;259;53.304;9.816;2023-07-16T04:00:20;22.90;89.80
546;DHT22;259;53.304;9.816;2023-07-16T04:02:46;22.90;89.60
546;DHT22;259;53.304;9.816;2023-07-16T04:05:11;22.90;89.80
546;DHT22;259;53.304;9.816;2023-07-16T04:07:37;22.90;89.80
546;DHT22;259;53.304;9.816;2023-07-16T04:10:03;22.90;89.60
546;DHT22;259;53.304;9.816;2023-07-16T04:12:29;22.90;89.70
546;DHT22;259;53.304;9.816;2023-07-16T04:14:58;22.90;89.60
546;DHT22;259;53.304;9.816;2023-07-16T04:17:24;22.90;89.60
546;DHT22;259;53.304;9.816;2023-07-16T04:19:50;22.90;89.60
546;DHT22;259;53.304;9.816;2023-07-16T04:22:16;22.80;89.60
546;DHT22;259;53.304;9.816;2023-07-16T04:24:41;22.80;89.50
546;DHT22;259;53.304;9.816;2023-07-16T04:27:07;22.80;89.70
546;DHT22;259;53.304;9.816;2023-07-16T04:29:33;22.80;89.60
546;DHT22;259;53.304;9.816;2023-07-16T04:31:59;22.80;89.50
546;DHT22;259;53.304;9.816;2023-07-16T04:34:24;22.80;90.10
546;DHT22;259;53.304;9.816;2023-07-16T04:36:50;22.80;89.60
546;DHT22;259;53.304;9.816;2023-07-16T04:39:16;22.80;89.70
546;DHT22;259;53.304;9.816;2023-07-16T04:41:41;22.80;89.70
546;DHT22;259;53.304;9.816;2023-07-16T04:44:07;22.80;89.90
546;DHT22;259;53.304;9.816;2023-07-16T04:46:33;22.80;89.90
546;DHT22;259;53.304;9.816;2023-07-16T04:48:59;22.80;89.80
546;DHT22;259;53.304;9.816;2023-07-16T04:51:25;22.80;89.70
546;DHT22;259;53.304;9.816;2023-07-16T04:53:51;22.80;89.90
546;DHT22;259;53.304;9.816;2023-07-16T04:56:16;22.80;89.80
546;DHT22;259;53.304;9.816;2023-07-16T04:58:42;22.70;89.70
546;DHT22;259;53.304;9.816;2023-07-16T05:01:09;22.70;89.60
546;DHT22;259;53.304;9.816;2023-07-16T05:03:35;22.70;89.70
546;DHT22;259;53.304;9.816;2023-07-16T05:06:02;22.70;89.50
546;DHT22;259;53.304;9.816;2023-07-16T05:08:28;22.70;89.60
546;DHT22;259;53.304;9.816;2023-07-16T05:10:54;22.70;89.40
546;DHT22;259;53.304;9.816;2023-07-16T05:13:19;22.70;89.50
546;DHT22;259;53.304;9.816;2023-07-16T05:15:45;22.70;89.50
546;DHT22;259;53.304;9.816;2023-07-16T05:18:11;22.70;89.50
546;DHT22;259;53.304;9.816;2023-07-16T05:20:37;22.60;89.50
546;DHT22;259;53.304;9.816;2023-07-16T05:23:02;22.60;89.30
546;DHT22;259;53.304;9.816;2023-07-16T05:25:28;22.60;89.40
546;DHT22;259;53.304;9.816;2023-07-16T05:27:55;22.60;89.30
546;DHT22;259;53.304;9.816;2023-07-16T05:30:20;22.60;89.30
546;DHT22;259;53.304;9.816;2023-07-16T05:32:46;22.60;89.40
546;DHT22;259;53.304;9.816;2023-07-16T05:35:12;22.60;89.50
546;DHT22;259;53.304;9.816;2023-07-16T05:37:38;22.60;89.50
546;DHT22;259;53.304;9.816;2023-07-16T05:40:04;22.60;89.40
546;DHT22;259;53.304;9.816;2023-07-16T05:42:31;22.60;89.40
546;DHT22;259;53.304;9.816;2023-07-16T05:44:56;22.60;89.70
546;DHT22;259;53.304;9.816;2023-07-16T05:47:22;22.60;89.40
546;DHT22;259;53.304;9.816;2023-07-16T05:49:48;22.60;89.40
546;DHT22;259;53.304;9.816;2023-07-16T05:52:14;22.60;89.40
546;DHT22;259;53.304;9.816;2023-07-16T05:54:39;22.60;89.50
546;DHT22;259;53.304;9.816;2023-07-16T05:57:05;22.60;89.20
546;DHT22;259;53.304;9.816;2023-07-16T05:59:31;22.60;89.20
546;DHT22;259;53.304;9.816;2023-07-16T06:02:01;22.50;89.20
546;DHT22;259;53.304;9.816;2023-07-16T06:04:27;22.50;89.20
546;DHT22;259;53.304;9.816;2023-07-16T06:06:53;22.50;89.20
546;DHT22;259;53.304;9.816;2023-07-16T06:09:19;22.50;89.20
546;DHT22;259;53.304;9.816;2023-07-16T06:11:48;22.50;89.10
546;DHT22;259;53.304;9.816;2023-07-16T06:14:14;22.50;89.10
546;DHT22;259;53.304;9.816;2023-07-16T06:16:39;22.50;89.10
546;DHT22;259;53.304;9.816;2023-07-16T06:19:05;22.50;89.10
546;DHT22;259;53.304;9.816;2023-07-16T06:21:31;22.50;89.20
546;DHT22;259;53.304;9.816;2023-07-16T06:23:56;22.50;89.10
546;DHT22;259;53.304;9.816;2023-07-16T06:26:22;22.50;89.10
546;DHT22;259;53.304;9.816;2023-07-16T06:28:48;22.50;89.10
546;DHT22;259;53.304;9.816;2023-07-16T06:31:16;22.50;89.30
546;DHT22;259;53.304;9.816;2023-07-16T06:33:42;22.50;89.30
546;DHT22;259;53.304;9.816;2023-07-16T06:36:07;22.50;90.00
546;DHT22;259;53.304;9.816;2023-07-16T06:38:33;22.40;89.30
546;DHT22;259;53.304;9.816;2023-07-16T06:40:59;22.40;89.30
546;DHT22;259;53.304;9.816;2023-07-16T06:43:24;22.40;89.20
546;DHT22;259;53.304;9.816;2023-07-16T06:45:50;22.40;89.30
546;DHT22;259;53.304;9.816;2023-07-16T06:48:16;22.40;89.40
546;DHT22;259;53.304;9.816;2023-07-16T06:50:42;22.40;89.40
546;DHT22;259;53.304;9.816;2023-07-16T06:53:08;22.40;89.50
546;DHT22;259;53.304;9.816;2023-07-16T06:55:34;22.40;89.70
546;DHT22;259;53.304;9.816;2023-07-16T06:58:00;22.40;89.70
546;DHT22;259;53.304;9.816;2023-07-16T07:00:26;22.40;89.80
546;DHT22;259;53.304;9.816;2023-07-16T07:02:52;22.40;89.80
546;DHT22;259;53.304;9.816;2023-07-16T07:05:18;22.40;89.60
546;DHT22;259;53.304;9.816;2023-07-16T07:07:43;22.40;89.60
546;DHT22;259;53.304;9.816;2023-07-16T07:10:13;22.40;89.60
546;DHT22;259;53.304;9.816;2023-07-16T07:12:39;22.40;89.70
546;DHT22;259;53.304;9.816;2023-07-16T07:15:06;22.40;89.60
546;DHT22;259;53.304;9.816;2023-07-16T07:17:32;22.40;89.50
546;DHT22;259;53.304;9.816;2023-07-16T07:19:58;22.40;89.40
546;DHT22;259;53.304;9.816;2023-07-16T07:22:25;22.40;89.30
546;DHT22;259;53.304;9.816;2023-07-16T07:24:51;22.40;89.40
546;DHT22;259;53.304;9.816;2023-07-16T07:27:17;22.40;89.50
546;DHT22;259;53.304;9.816;2023-07-16T07:29:42;22.40;89.40
546;DHT22;259;53.304;9.816;2023-07-16T07:32:08;22.40;89.30
546;DHT22;259;53.304;9.816;2023-07-16T07:34:34;22.40;89.50
546;DHT22;259;53.304;9.816;2023-07-16T07:36:59;22.40;89.40
546;DHT22;259;53.304;9.816;2023-07-16T07:39:25;22.40;89.40
546;DHT22;259;53.304;9.816;2023-07-16T07:41:51;22.40;89.20
546;DHT22;259;53.304;9.816;2023-07-16T07:44:16;22.40;89.20
546;DHT22;259;53.304;9.816;2023-07-16T07:46:42;22.40;89.20
546;DHT22;259;53.304;9.816;2023-07-16T07:49:08;22.40;89.20
546;DHT22;259;53.304;9.816;2023-07-16T07:51:34;22.40;89.10
546;DHT22;259;53.304;9.816;2023-07-16T07:54:00;22.40;89.20
546;DHT22;259;53.304;9.816;2023-07-16T07:56:26;22.40;89.10
546;DHT22;259;53.304;9.816;2023-07-16T07:58:52;22.40;89.10
546;DHT22;259;53.304;9.816;2023-07-16T08:01:17;22.40;89.00
546;DHT22;259;53.304;9.816;2023-07-16T08:03:43;22.40;88.90
546;DHT22;259;53.304;9.816;2023-07-16T08:06:09;22.40;88.90
546;DHT22;259;53.304;9.816;2023-07-16T08:08:37;22.40;88.90
546;DHT22;259;53.304;9.816;2023-07-16T08:11:02;22.40;88.90
546;DHT22;259;53.304;9.816;2023-07-16T08:13:28;22.40;88.80
546;DHT22;259;53.304;9.816;2023-07-16T08:15:54;22.40;88.70
546;DHT22;259;53.304;9.816;2023-07-16T08:18:19;22.40;88.80
546;DHT22;259;53.304;9.816;2023-07-16T08:20:46;22.40;88.70
546;DHT22;259;53.304;9.816;2023-07-16T08:23:12;22.40;88.70
546;DHT22;259;53.304;9.816;2023-07-16T08:25:38;22.40;88.60
546;DHT22;259;53.304;9.816;2023-07-16T08:28:04;22.40;88.40
546;DHT22;259;53.304;9.816;2023-07-16T08:30:31;22.40;88.40
546;DHT22;259;53.304;9.816;2023-07-16T08:32:57;22.40;88.30
546;DHT22;259;53.304;9.816;2023-07-16T08:35:23;22.40;88.30
546;DHT22;259;53.304;9.816;2023-07-16T08:37:48;22.40;88.20
546;DHT22;259;53.304;9.816;2023-07-16T08:40:14;22.40;88.10
546;DHT22;259;53.304;9.816;2023-07-16T08:42:40;22.40;88.00
546;DHT22;259;53.304;9.816;2023-07-16T08:45:11;22.40;87.90
546;DHT22;259;53.304;9.816;2023-07-16T08:47:37;22.40;87.90
546;DHT22;259;53.304;9.816;2023-07-16T08:50:03;22.50;87.80
546;DHT22;259;53.304;9.816;2023-07-16T08:52:30;22.40;87.60
546;DHT22;259;53.304;9.816;2023-07-16T08:54:56;22.50;87.60
546;DHT22;259;53.304;9.816;2023-07-16T08:57:22;22.50;87.30
546;DHT22;259;53.304;9.816;2023-07-16T08:59:49;22.50;86.90
546;DHT22;259;53.304;9.816;2023-07-16T09:02:17;22.50;86.60
546;DHT22;259;53.304;9.816;2023-07-16T09:04:44;22.50;86.50
546;DHT22;259;53.304;9.816;2023-07-16T09:07:12;22.50;86.50
546;DHT22;259;53.304;9.816;2023-07-16T09:09:38;22.50;86.30
546;DHT22;259;53.304;9.816;2023-07-16T09:12:04;22.60;86.30
546;DHT22;259;53.304;9.816;2023-07-16T09:14:30;22.60;85.70
546;DHT22;259;53.304;9.816;2023-07-16T09:16:55;22.60;85.50
546;DHT22;259;53.304;9.816;2023-07-16T09:19:21;22.60;85.30
546;DHT22;259;53.304;9.816;2023-07-16T09:21:48;22.70;84.70
546;DHT22;259;53.304;9.816;2023-07-16T09:24:15;22.70;84.20
546;DHT22;259;53.304;9.816;2023-07-16T09:26:48;22.80;84.00
546;DHT22;259;53.304;9.816;2023-07-16T09:29:18;22.80;83.60
546;DHT22;259;53.304;9.816;2023-07-16T09:32:00;22.80;83.40
546;DHT22;259;53.304;9.816;2023-07-16T09:34:30;22.80;84.10
546;DHT22;259;53.304;9.816;2023-07-16T09:36:57;22.70;83.20
546;DHT22;259;53.304;9.816;2023-07-16T09:39:25;22.70;83.30
546;DHT22;259;53.304;9.816;2023-07-16T09:41:51;22.70;83.20
546;DHT22;259;53.304;9.816;2023-07-16T09:44:18;22.70;83.10
546;DHT22;259;53.304;9.816;2023-07-16T09:46:45;22.70;83.20
546;DHT22;259;53.304;9.816;2023-07-16T09:49:11;22.70;83.00
546;DHT22;259;53.304;9.816;2023-07-16T09:51:39;22.70;83.30
546;DHT22;259;53.304;9.816;2023-07-16T09:54:05;22.70;83.40
546;DHT22;259;53.304;9.816;2023-07-16T09:56:37;22.70;83.40
546;DHT22;259;53.304;9.816;2023-07-16T09:59:09;22.70;83.50
546;DHT22;259;53.304;9.816;2023-07-16T10:01:38;22.70;83.40
546;DHT22;259;53.304;9.816;2023-07-16T10:04:18;22.80;83.60
546;DHT22;259;53.304;9.816;2023-07-16T10:07:03;22.80;83.60
546;DHT22;259;53.304;9.816;2023-07-16T10:09:51;22.80;83.50
546;DHT22;259;53.304;9.816;2023-07-16T10:12:23;22.80;83.40
546;DHT22;259;53.304;9.816;2023-07-16T10:14:51;22.80;83.10
546;DHT22;259;53.304;9.816;2023-07-16T10:17:23;22.70;83.50
546;DHT22;259;53.304;9.816;2023-07-16T10:22:17;22.70;83.20
546;DHT22;259;53.304;9.816;2023-07-16T10:24:43;22.70;83.10
546;DHT22;259;53.304;9.816;2023-07-16T10:27:09;22.70;83.10
546;DHT22;259;53.304;9.816;2023-07-16T10:29:38;22.70;82.90
546;DHT22;259;53.304;9.816;2023-07-16T10:32:05;22.70;82.80
546;DHT22;259;53.304;9.816;2023-07-16T10:34:35;22.70;83.00
546;DHT22;259;53.304;9.816;2023-07-16T10:37:01;22.70;82.50
546;DHT22;259;53.304;9.816;2023-07-16T10:39:27;22.70;82.50
546;DHT22;259;53.304;9.816;2023-07-16T10:41:53;22.70;82.40
546;DHT22;259;53.304;9.816;2023-07-16T10:44:20;22.70;82.70
546;DHT22;259;53.304;9.816;2023-07-16T10:46:47;22.70;83.30
546;DHT22;259;53.304;9.816;2023-07-16T10:49:12;22.70;82.70
546;DHT22;259;53.304;9.816;2023-07-16T10:51:38;22.70;82.60
546;DHT22;259;53.304;9.816;2023-07-16T10:54:04;22.70;82.30
546;DHT22;259;53.304;9.816;2023-07-16T10:56:34;22.70;82.20
546;DHT22;259;53.304;9.816;2023-07-16T10:59:02;22.70;81.60
546;DHT22;259;53.304;9.816;2023-07-16T11:01:29;22.70;81.10
546;DHT22;259;53.304;9.816;2023-07-16T11:04:00;22.70;81.10
546;DHT22;259;53.304;9.816;2023-07-16T11:06:26;22.70;81.00
546;DHT22;259;53.304;9.816;2023-07-16T11:08:52;22.70;81.00
546;DHT22;259;53.304;9.816;2023-07-16T11:11:28;22.70;80.90
546;DHT22;259;53.304;9.816;2023-07-16T11:13:55;22.70;80.80
546;DHT22;259;53.304;9.816;2023-07-16T11:16:20;22.80;80.80
546;DHT22;259;53.304;9.816;2023-07-16T11:18:47;22.80;80.90
546;DHT22;259;53.304;9.816;2023-07-16T11:21:13;22.80;80.80
546;DHT22;259;53.304;9.816;2023-07-16T11:23:39;22.80;81.00
546;DHT22;259;53.304;9.816;2023-07-16T11:26:04;22.80;81.10
546;DHT22;259;53.304;9.816;2023-07-16T11:28:40;22.80;81.10
546;DHT22;259;53.304;9.816;2023-07-16T11:31:16;22.80;81.10
546;DHT22;259;53.304;9.816;2023-07-16T11:33:43;22.80;81.10
546;DHT22;259;53.304;9.816;2023-07-16T11:36:10;22.80;81.30
546;DHT22;259;53.304;9.816;2023-07-16T11:38:37;22.80;81.10
546;DHT22;259;53.304;9.816;2023-07-16T11:41:03;22.80;81.00
546;DHT22;259;53.304;9.816;2023-07-16T11:43:29;22.80;81.00
546;DHT22;259;53.304;9.816;2023-07-16T11:45:59;22.80;80.80
546;DHT22;259;53.304;9.816;2023-07-16T11:48:25;22.80;80.80
546;DHT22;259;53.304;9.816;2023-07-16T11:50:51;22.80;80.60
546;DHT22;259;53.304;9.816;2023-07-16T11:53:17;22.80;80.70
546;DHT22;259;53.304;9.816;2023-07-16T11:55:42;22.80;80.70
546;DHT22;259;53.304;9.816;2023-07-16T11:58:08;22.90;80.60
546;DHT22;259;53.304;9.816;2023-07-16T12:00:33;22.80;80.50
546;DHT22;259;53.304;9.816;2023-07-16T12:02:59;22.80;80.60
546;DHT22;259;53.304;9.816;2023-07-16T12:05:25;22.80;80.70
546;DHT22;259;53.304;9.816;2023-07-16T12:07:53;22.80;81.10
546;DHT22;259;53.304;9.816;2023-07-16T12:10:19;22.80;81.30
546;DHT22;259;53.304;9.816;2023-07-16T12:12:45;22.80;81.20
546;DHT22;259;53.304;9.816;2023-07-16T12:15:11;22.80;81.30
546;DHT22;259;53.304;9.816;2023-07-16T12:17:37;22.80;81.30
546;DHT22;259;53.304;9.816;2023-07-16T12:20:03;22.80;81.10
546;DHT22;259;53.304;9.816;2023-07-16T12:22:30;22.80;81.20
546;DHT22;259;53.304;9.816;2023-07-16T12:24:55;22.80;81.10
546;DHT22;259;53.304;9.816;2023-07-16T12:27:21;22.80;81.20
546;DHT22;259;53.304;9.816;2023-07-16T12:29:47;22.80;81.20
546;DHT22;259;53.304;9.816;2023-07-16T12:32:13;22.80;81.00
546;DHT22;259;53.304;9.816;2023-07-16T12:34:39;22.80;81.00
546;DHT22;259;53.304;9.816;2023-07-16T12:37:05;22.80;81.90
546;DHT22;259;53.304;9.816;2023-07-16T12:39:32;22.80;81.10
546;DHT22;259;53.304;9.816;2023-07-16T12:41:58;22.80;81.10
546;DHT22;259;53.304;9.816;2023-07-16T12:44:24;22.90;81.10
546;DHT22;259;53.304;9.816;2023-07-16T12:46:49;22.90;81.20
546;DHT22;259;53.304;9.816;2023-07-16T12:49:15;22.90;81.30
546;DHT22;259;53.304;9.816;2023-07-16T12:51:41;22.90;81.50
546;DHT22;259;53.304;9.816;2023-07-16T12:54:06;22.90;81.40
546;DHT22;259;53.304;9.816;2023-07-16T12:56:32;22.90;81.40
546;DHT22;259;53.304;9.816;2023-07-16T12:58:58;22.90;81.30
546;DHT22;259;53.304;9.816;2023-07-16T13:01:23;22.90;81.20
546;DHT22;259;53.304;9.816;2023-07-16T13:03:49;22.90;81.20
546;DHT22;259;53.304;9.816;2023-07-16T13:06:15;22.90;81.10
546;DHT22;259;53.304;9.816;2023-07-16T13:08:40;22.90;81.00
546;DHT22;259;53.304;9.816;2023-07-16T13:11:06;22.90;80.80
546;DHT22;259;53.304;9.816;2023-07-16T13:13:32;22.90;81.00
546;DHT22;259;53.304;9.816;2023-07-16T13:15:57;22.90;80.70
546;DHT22;259;53.304;9.816;2023-07-16T13:18:23;23.00;80.90
546;DHT22;259;53.304;9.816;2023-07-16T13:20:49;23.00;80.70
546;DHT22;259;53.304;9.816;2023-07-16T13:23:15;23.00;80.80
546;DHT22;259;53.304;9.816;2023-07-16T13:25:40;23.00;80.70
546;DHT22;259;53.304;9.816;2023-07-16T13:28:07;23.00;80.80
546;DHT22;259;53.304;9.816;2023-07-16T13:30:33;23.00;80.70
546;DHT22;259;53.304;9.816;2023-07-16T13:32:59;23.00;80.50
546;DHT22;259;53.304;9.816;2023-07-16T13:35:24;23.00;80.40
546;DHT22;259;53.304;9.816;2023-07-16T13:37:50;23.00;80.40
546;DHT22;259;53.304;9.816;2023-07-16T13:40:16;23.00;80.20
546;DHT22;259;53.304;9.816;2023-07-16T13:42:45;23.00;81.00
546;DHT22;259;53.304;9.816;2023-07-16T13:45:14;23.10;80.40
546;DHT22;259;53.304;9.816;2023-07-16T13:47:40;23.10;80.40
546;DHT22;259;53.304;9.816;2023-07-16T13:50:06;23.10;80.40
546;DHT22;259;53.304;9.816;2023-07-16T13:52:32;23.10;80.60
546;DHT22;259;53.304;9.816;2023-07-16T13:54:58;23.00;80.30
546;DHT22;259;53.304;9.816;2023-07-16T13:57:23;23.00;80.20
546;DHT22;259;53.304;9.816;2023-07-16T13:59:49;23.00;80.10
546;DHT22;259;53.304;9.816;2023-07-16T14:02:15;23.00;80.10
546;DHT22;259;53.304;9.816;2023-07-16T14:04:40;23.00;80.00
546;DHT22;259;53.304;9.816;2023-07-16T14:07:06;23.00;79.90
546;DHT22;259;53.304;9.816;2023-07-16T14:09:32;23.00;79.80
546;DHT22;259;53.304;9.816;2023-07-16T14:11:57;23.00;79.90
546;DHT22;259;53.304;9.816;2023-07-16T14:14:23;23.00;79.70
546;DHT22;259;53.304;9.816;2023-07-16T14:16:49;23.00;79.60
546;DHT22;259;53.304;9.816;2023-07-16T14:19:15;23.00;79.60
546;DHT22;259;53.304;9.816;2023-07-16T14:21:41;23.00;79.60
546;DHT22;259;53.304;9.816;2023-07-16T14:24:06;23.00;79.60
546;DHT22;259;53.304;9.816;2023-07-16T14:26:32;23.00;79.60
546;DHT22;259;53.304;9.816;2023-07-16T14:28:59;23.00;79.60
546;DHT22;259;53.304;9.816;2023-07-16T14:31:24;23.00;79.50
546;DHT22;259;53.304;9.816;2023-07-16T14:33:50;23.00;79.50
546;DHT22;259;53.304;9.816;2023-07-16T14:36:17;23.00;79.50
546;DHT22;259;53.304;9.816;2023-07-16T14:38:42;23.00;79.60
546;DHT22;259;53.304;9.816;2023-07-16T14:41:08;23.00;79.60
546;DHT22;259;53.304;9.816;2023-07-16T14:43:34;23.10;79.90
546;DHT22;259;53.304;9.816;2023-07-16T14:45:59;23.10;79.80
546;DHT22;259;53.304;9.816;2023-07-16T14:48:25;23.10;79.80
546;DHT22;259;53.304;9.816;2023-07-16T14:50:52;23.20;79.90
546;DHT22;259;53.304;9.816;2023-07-16T14:53:18;23.20;79.90
546;DHT22;259;53.304;9.816;2023-07-16T14:55:48;23.20;79.90
546;DHT22;259;53.304;9.816;2023-07-16T14:58:19;23.20;80.00
546;DHT22;259;53.304;9.816;2023-07-16T15:00:46;23.20;79.90
546;DHT22;259;53.304;9.816;2023-07-16T15:03:12;23.20;79.90
546;DHT22;259;53.304;9.816;2023-07-16T15:05:38;23.20;79.90
546;DHT22;259;53.304;9.816;2023-07-16T15:08:04;23.30;79.90
546;DHT22;259;53.304;9.816;2023-07-16T15:10:30;23.30;80.00
546;DHT22;259;53.304;9.816;2023-07-16T15:12:56;23.30;79.90
546;DHT22;259;53.304;9.816;2023-07-16T15:15:22;23.30;79.70
546;DHT22;259;53.304;9.816;2023-07-16T15:17:48;23.40;80.00
546;DHT22;259;53.304;9.816;2023-07-16T15:20:13;23.40;79.60
546;DHT22;259;53.304;9.816;2023-07-16T15:22:39;23.40;79.50
546;DHT22;259;53.304;9.816;2023-07-16T15:25:06;23.40;79.20
546;DHT22;259;53.304;9.816;2023-07-16T15:27:32;23.40;79.00
546;DHT22;259;53.304;9.816;2023-07-16T15:29:58;23.40;79.00
546;DHT22;259;53.304;9.816;2023-07-16T15:32:24;23.40;79.00
546;DHT22;259;53.304;9.816;2023-07-16T15:34:49;23.40;78.90
546;DHT22;259;53.304;9.816;2023-07-16T15:37:15;23.40;79.00
546;DHT22;259;53.304;9.816;2023-07-16T15:39:41;23.40;78.90
546;DHT22;259;53.304;9.816;2023-07-16T15:42:06;23.40;78.90
546;DHT22;259;53.304;9.816;2023-07-16T15:44:32;23.40;78.90
546;DHT22;259;53.304;9.816;2023-07-16T15:46:58;23.40;78.90
546;DHT22;259;53.304;9.816;2023-07-16T15:49:25;23.40;78.90
546;DHT22;259;53.304;9.816;2023-07-16T15:51:51;23.40;78.90
546;DHT22;259;53.304;9.816;2023-07-16T15:54:16;23.40;79.10
546;DHT22;259;53.304;9.816;2023-07-16T15:56:43;23.40;79.00
546;DHT22;259;53.304;9.816;2023-07-16T15:59:09;23.40;79.10
546;DHT22;259;53.304;9.816;2023-07-16T16:01:34;23.30;79.10
546;DHT22;259;53.304;9.816;2023-07-16T16:04:00;23.30;79.30
546;DHT22;259;53.304;9.816;2023-07-16T16:06:26;23.40;79.40
546;DHT22;259;53.304;9.816;2023-07-16T16:08:51;23.30;79.40
546;DHT22;259;53.304;9.816;2023-07-16T16:11:17;23.30;79.40
546;DHT22;259;53.304;9.816;2023-07-16T16:13:43;23.40;79.50
546;DHT22;259;53.304;9.816;2023-07-16T16:16:09;23.40;79.40
546;DHT22;259;53.304;9.816;2023-07-16T16:18:34;23.30;79.30
546;DHT22;259;53.304;9.816;2023-07-16T16:21:00;23.30;79.40
546;DHT22;259;53.304;9.816;2023-07-16T16:23:26;23.30;79.40
546;DHT22;259;53.304;9.816;2023-07-16T16:25:52;23.30;79.40
546;DHT22;259;53.304;9.816;2023-07-16T16:28:18;23.30;79.30
546;DHT22;259;53.304;9.816;2023-07-16T16:30:45;23.30;79.30
546;DHT22;259;53.304;9.816;2023-07-16T16:33:10;23.30;79.40
546;DHT22;259;53.304;9.816;2023-07-16T16:35:39;23.30;79.30
546;DHT22;259;53.304;9.816;2023-07-16T16:38:07;23.30;79.30